createdAt,value
2019-05-21T00:00:22.134Z,12.61
2019-05-21T00:02:54.626Z,12.71
2019-05-21T00:05:27.869Z,12.78
2019-05-21T00:08:00.144Z,12.79
2019-05-21T00:10:32.369Z,12.80
2019-05-21T00:13:04.804Z,12.68
2019-05-21T00:15:38.641Z,12.63
2019-05-21T00:18:10.961Z,12.62
2019-05-21T00:20:43.285Z,12.50
2019-05-21T00:23:15.603Z,12.50
2019-05-21T00:25:47.823Z,12.50
2019-05-21T00:28:20.150Z,12.50
2019-05-21T00:30:52.385Z,12.58
2019-05-21T00:33:25.666Z,12.59
2019-05-21T00:35:57.959Z,12.60
2019-05-21T00:38:30.414Z,12.57
2019-05-21T00:41:03.055Z,12.48
2019-05-21T00:43:35.231Z,12.52
2019-05-21T00:46:07.493Z,12.59
2019-05-21T00:48:39.763Z,12.56
2019-05-21T00:51:11.983Z,12.54
2019-05-21T00:53:44.220Z,12.59
2019-05-21T00:56:16.427Z,12.63
2019-05-21T00:58:48.651Z,12.64
2019-05-21T01:01:20.917Z,12.64
2019-05-21T01:03:53.126Z,12.70
2019-05-21T01:06:25.382Z,12.69
2019-05-21T01:08:57.608Z,12.66
2019-05-21T01:11:29.899Z,12.57
2019-05-21T01:14:02.193Z,12.52
2019-05-21T01:16:34.382Z,12.49
2019-05-21T01:19:06.643Z,12.51
2019-05-21T01:21:38.946Z,12.58
2019-05-21T01:24:11.214Z,12.63
2019-05-21T01:26:43.487Z,12.64
2019-05-21T01:29:15.772Z,12.63
2019-05-21T01:31:47.981Z,12.70
2019-05-21T01:34:20.228Z,12.74
2019-05-21T01:36:52.671Z,12.71
2019-05-21T01:39:25.095Z,12.66
2019-05-21T01:41:57.602Z,12.59
2019-05-21T01:44:29.877Z,12.59
2019-05-21T01:47:04.147Z,12.53
2019-05-21T01:49:36.376Z,12.49
2019-05-21T01:52:09.422Z,12.46
2019-05-21T01:54:41.663Z,12.44
2019-05-21T01:57:13.972Z,12.45
2019-05-21T01:59:46.433Z,12.43
2019-05-21T02:02:18.643Z,12.40
2019-05-21T02:04:50.970Z,12.42
2019-05-21T02:07:25.373Z,12.39
2019-05-21T02:09:57.634Z,12.35
2019-05-21T02:12:29.837Z,12.37
2019-05-21T02:15:02.202Z,12.32
2019-05-21T02:17:35.516Z,12.26
2019-05-21T02:20:07.971Z,12.18
2019-05-21T02:22:40.258Z,12.16
2019-05-21T02:25:12.526Z,12.19
2019-05-21T02:27:44.771Z,12.19
2019-05-21T02:30:17.006Z,12.22
2019-05-21T02:32:49.265Z,12.25
2019-05-21T02:35:21.544Z,12.23
2019-05-21T02:37:53.776Z,12.19
2019-05-21T02:40:26.050Z,12.17
2019-05-21T02:42:58.323Z,12.15
2019-05-21T02:45:30.571Z,12.11
2019-05-21T02:48:02.809Z,12.06
2019-05-21T02:50:35.059Z,12.01
2019-05-21T02:53:07.355Z,11.99
2019-05-21T02:55:39.600Z,12.00
2019-05-21T02:58:11.845Z,11.97
2019-05-21T03:00:44.128Z,12.00
2019-05-21T03:03:17.564Z,12.04
2019-05-21T03:05:49.799Z,12.08
2019-05-21T03:08:21.983Z,12.00
2019-05-21T03:10:56.305Z,11.94
2019-05-21T03:13:28.490Z,11.99
2019-05-21T03:16:00.823Z,11.93
2019-05-21T03:18:33.107Z,11.92
2019-05-21T03:21:05.376Z,11.88
2019-05-21T03:23:37.678Z,11.86
2019-05-21T03:26:09.862Z,11.88
2019-05-21T03:28:42.105Z,11.86
2019-05-21T03:31:14.499Z,11.82
2019-05-21T03:33:47.013Z,11.81
2019-05-21T03:36:32.710Z,11.82
2019-05-21T03:38:53.180Z,11.81
2019-05-21T03:41:25.418Z,11.86
2019-05-21T03:43:57.671Z,11.81
2019-05-21T03:46:31.998Z,11.75
2019-05-21T03:49:04.223Z,11.78
2019-05-21T03:51:36.469Z,11.75
2019-05-21T03:54:08.755Z,11.68
2019-05-21T03:56:42.951Z,11.65
2019-05-21T03:59:15.435Z,11.65
2019-05-21T04:01:47.649Z,11.63
2019-05-21T04:04:19.878Z,11.60
2019-05-21T04:06:53.379Z,11.67
2019-05-21T04:09:25.665Z,11.73
2019-05-21T04:12:00.186Z,11.71
2019-05-21T04:14:32.488Z,11.78
2019-05-21T04:17:04.767Z,11.86
2019-05-21T04:19:37.062Z,11.79
2019-05-21T04:22:09.294Z,11.71
2019-05-21T04:24:41.575Z,11.72
2019-05-21T04:27:13.799Z,11.78
2019-05-21T04:29:46.153Z,11.85
2019-05-21T04:32:18.388Z,11.89
2019-05-21T04:34:50.601Z,11.87
2019-05-21T04:37:22.806Z,11.87
2019-05-21T04:39:55.105Z,11.88
2019-05-21T04:42:27.304Z,11.95
2019-05-21T04:44:59.589Z,11.92
2019-05-21T04:47:31.876Z,12.01
2019-05-21T04:50:04.142Z,12.01
2019-05-21T04:52:36.371Z,12.02
2019-05-21T04:55:08.608Z,12.02
2019-05-21T04:57:41.028Z,12.07
2019-05-21T05:00:13.497Z,12.02
2019-05-21T05:02:45.816Z,11.93
2019-05-21T05:05:18.088Z,11.87
2019-05-21T05:07:50.576Z,11.89
2019-05-21T05:10:22.898Z,11.88
2019-05-21T05:12:55.165Z,11.93
2019-05-21T05:15:27.411Z,11.99
2019-05-21T05:17:59.664Z,12.00
2019-05-21T05:20:32.006Z,12.13
2019-05-21T05:23:04.247Z,12.19
2019-05-21T05:25:36.491Z,12.16
2019-05-21T05:28:08.769Z,12.15
2019-05-21T05:30:40.985Z,12.22
2019-05-21T05:33:13.174Z,12.21
2019-05-21T05:35:45.491Z,12.15
2019-05-21T05:38:17.725Z,12.13
2019-05-21T05:40:49.954Z,12.10
2019-05-21T05:43:24.351Z,12.15
2019-05-21T05:45:58.661Z,12.15
2019-05-21T05:48:30.943Z,12.16
2019-05-21T05:51:03.421Z,12.21
2019-05-21T05:53:35.689Z,12.21
2019-05-21T05:56:07.951Z,12.16
2019-05-21T05:58:40.207Z,12.17
2019-05-21T06:01:12.433Z,12.29
2019-05-21T06:03:44.694Z,12.38
2019-05-21T06:06:17.116Z,12.47
2019-05-21T06:08:49.665Z,12.55
2019-05-21T06:11:21.919Z,12.48
2019-05-21T06:13:54.171Z,12.51
2019-05-21T06:16:26.431Z,12.49
2019-05-21T06:18:58.668Z,12.50
2019-05-21T06:21:30.897Z,12.65
2019-05-21T06:24:03.292Z,12.67
2019-05-21T06:26:35.609Z,12.63
2019-05-21T06:29:07.843Z,12.72
2019-05-21T06:31:40.050Z,12.75
2019-05-21T06:34:12.557Z,12.75
2019-05-21T06:36:44.792Z,12.81
2019-05-21T06:39:17.081Z,12.77
2019-05-21T06:41:49.328Z,12.82
2019-05-21T06:44:21.559Z,12.80
2019-05-21T06:46:54.095Z,12.76
2019-05-21T06:49:26.316Z,12.72
2019-05-21T06:51:58.559Z,12.71
2019-05-21T06:54:30.826Z,12.77
2019-05-21T06:57:03.051Z,12.90
2019-05-21T06:59:35.267Z,13.05
2019-05-21T07:02:07.562Z,13.09
2019-05-21T07:04:39.805Z,13.08
2019-05-21T07:07:12.008Z,13.17
2019-05-21T07:09:44.217Z,13.16
2019-05-21T07:12:16.488Z,13.02
2019-05-21T07:14:48.708Z,13.02
2019-05-21T07:17:20.922Z,13.01
2019-05-21T07:19:53.203Z,12.92
2019-05-21T07:22:25.432Z,12.84
2019-05-21T07:24:57.665Z,12.76
2019-05-21T07:27:29.880Z,12.85
2019-05-21T07:30:02.421Z,12.89
2019-05-21T07:32:35.386Z,12.91
2019-05-21T07:35:07.620Z,12.94
2019-05-21T07:37:40.255Z,12.93
2019-05-21T07:40:12.664Z,12.99
2019-05-21T07:42:44.923Z,13.03
2019-05-21T07:45:17.226Z,13.05
2019-05-21T07:47:51.557Z,12.96
2019-05-21T07:50:23.807Z,12.89
2019-05-21T07:52:56.042Z,12.82
2019-05-21T07:55:28.297Z,12.77
2019-05-21T07:58:00.559Z,12.79
2019-05-21T08:00:32.767Z,12.77
2019-05-21T08:03:04.980Z,12.73
2019-05-21T08:05:37.477Z,12.73
2019-05-21T08:08:09.729Z,12.70
2019-05-21T08:10:42.034Z,12.75
2019-05-21T08:13:14.253Z,12.85
2019-05-21T08:15:46.308Z,12.90
2019-05-21T08:18:18.561Z,12.86
2019-05-21T08:20:50.811Z,12.88
2019-05-21T08:23:23.067Z,12.93
2019-05-21T08:25:55.306Z,12.98
2019-05-21T08:28:27.582Z,12.98
2019-05-21T08:31:02.246Z,13.01
2019-05-21T08:33:33.739Z,13.01
2019-05-21T08:36:06.261Z,13.04
2019-05-21T08:38:38.458Z,13.06
2019-05-21T08:41:10.680Z,13.11
2019-05-21T08:43:42.901Z,12.96
2019-05-21T08:46:15.169Z,12.91
2019-05-21T08:48:47.402Z,12.92
2019-05-21T08:51:19.670Z,12.97
2019-05-21T08:53:51.867Z,13.06
2019-05-21T08:56:24.064Z,13.03
2019-05-21T08:58:56.333Z,13.02
2019-05-21T09:01:28.557Z,13.07
2019-05-21T09:04:00.832Z,13.09
2019-05-21T09:06:33.151Z,13.11
2019-05-21T09:09:05.429Z,13.19
2019-05-21T09:11:37.709Z,13.21
2019-05-21T09:14:10.078Z,13.18
2019-05-21T09:16:42.301Z,13.28
2019-05-21T09:19:14.502Z,13.29
2019-05-21T09:21:46.763Z,13.16
2019-05-21T09:24:19.013Z,13.09
2019-05-21T09:26:51.168Z,13.08
2019-05-21T09:29:23.449Z,13.11
2019-05-21T09:31:55.723Z,13.21
2019-05-21T09:34:27.980Z,13.23
2019-05-21T09:37:00.373Z,13.23
2019-05-21T09:39:32.633Z,13.35
2019-05-21T09:42:04.874Z,13.39
2019-05-21T09:44:37.165Z,13.37
2019-05-21T09:47:09.434Z,13.36
2019-05-21T09:49:41.711Z,13.33
2019-05-21T09:52:13.956Z,13.31
2019-05-21T09:54:46.165Z,13.30
2019-05-21T09:57:18.387Z,13.38
2019-05-21T09:59:50.868Z,13.42
2019-05-21T10:02:23.059Z,13.37
2019-05-21T10:04:55.324Z,13.44
2019-05-21T10:07:38.885Z,13.58
2019-05-21T10:10:01.501Z,13.62
2019-05-21T10:12:33.890Z,13.60
2019-05-21T10:15:06.133Z,13.48
2019-05-21T10:17:38.365Z,13.49
2019-05-21T10:20:10.809Z,13.52
2019-05-21T10:22:43.105Z,13.57
2019-05-21T10:25:15.995Z,13.59
2019-05-21T10:27:48.353Z,13.74
2019-05-21T10:30:20.583Z,13.81
2019-05-21T10:32:52.917Z,13.88
2019-05-21T10:35:25.233Z,13.84
2019-05-21T10:37:59.780Z,13.79
2019-05-21T10:40:34.215Z,13.81
2019-05-21T10:43:06.540Z,13.93
2019-05-21T10:45:38.819Z,13.92
2019-05-21T10:48:11.076Z,13.89
2019-05-21T10:50:43.325Z,13.90
2019-05-21T10:53:15.541Z,13.94
2019-05-21T10:55:47.790Z,14.00
2019-05-21T10:58:20.003Z,14.12
2019-05-21T11:00:52.261Z,14.20
2019-05-21T11:03:24.511Z,14.19
2019-05-21T11:06:09.789Z,14.29
2019-05-21T11:08:30.690Z,14.40
2019-05-21T11:11:02.890Z,14.47
2019-05-21T11:13:35.214Z,14.40
2019-05-21T11:16:07.509Z,14.37
2019-05-21T11:18:39.757Z,14.30
2019-05-21T11:21:12.969Z,14.42
2019-05-21T11:23:45.269Z,14.51
2019-05-21T11:26:17.458Z,14.43
2019-05-21T11:28:49.697Z,14.57
2019-05-21T11:31:22.087Z,14.69
2019-05-21T11:33:54.357Z,14.65
2019-05-21T11:36:26.587Z,14.72
2019-05-21T11:38:58.837Z,14.75
2019-05-21T11:41:31.055Z,14.69
2019-05-21T11:44:03.318Z,14.59
2019-05-21T11:46:35.552Z,14.55
2019-05-21T11:49:07.760Z,14.45
2019-05-21T11:51:40.066Z,14.34
2019-05-21T11:54:13.706Z,14.35
2019-05-21T11:56:46.173Z,14.58
2019-05-21T11:59:18.389Z,14.66
2019-05-21T12:01:50.598Z,14.61
2019-05-21T12:04:22.837Z,14.52
2019-05-21T12:06:55.060Z,14.65
2019-05-21T12:09:27.315Z,14.80
2019-05-21T12:11:59.600Z,14.82
2019-05-21T12:14:33.874Z,14.74
2019-05-21T12:17:08.356Z,14.64
2019-05-21T12:19:40.591Z,14.42
2019-05-21T12:22:12.844Z,14.53
2019-05-21T12:24:45.080Z,14.75
2019-05-21T12:27:17.366Z,14.80
2019-05-21T12:29:49.620Z,14.78
2019-05-21T12:32:21.949Z,14.76
2019-05-21T12:34:54.239Z,14.61
2019-05-21T12:37:26.502Z,14.67
2019-05-21T12:39:58.715Z,14.79
2019-05-21T12:42:30.945Z,14.83
2019-05-21T12:45:03.233Z,15.04
2019-05-21T12:47:35.472Z,15.21
2019-05-21T12:50:09.990Z,15.23
2019-05-21T12:52:42.192Z,15.29
2019-05-21T12:55:14.464Z,15.29
2019-05-21T12:57:46.685Z,15.15
2019-05-21T13:00:18.956Z,15.20
2019-05-21T13:02:51.226Z,15.26
2019-05-21T13:05:23.439Z,15.52
2019-05-21T13:07:55.673Z,15.50
2019-05-21T13:10:27.978Z,15.35
2019-05-21T13:13:00.266Z,15.40
2019-05-21T13:15:32.540Z,15.35
2019-05-21T13:18:04.832Z,15.36
2019-05-21T13:20:37.100Z,15.23
2019-05-21T13:23:11.775Z,15.05
2019-05-21T13:25:44.016Z,14.99
2019-05-21T13:28:16.256Z,14.82
2019-05-21T13:30:49.811Z,14.69
2019-05-21T13:33:22.707Z,14.75
2019-05-21T13:35:54.942Z,14.82
2019-05-21T13:38:27.280Z,14.74
2019-05-21T13:40:59.639Z,14.68
2019-05-21T13:43:31.933Z,14.54
2019-05-21T13:46:04.247Z,14.42
2019-05-21T13:48:36.545Z,14.38
2019-05-21T13:51:08.803Z,14.52
2019-05-21T13:53:41.209Z,14.51
2019-05-21T13:56:14.014Z,14.34
2019-05-21T13:58:46.513Z,14.12
2019-05-21T14:01:18.783Z,13.96
2019-05-21T14:03:51.175Z,13.85
2019-05-21T14:06:23.397Z,13.84
2019-05-21T14:08:55.687Z,13.80
2019-05-21T14:11:27.910Z,13.83
2019-05-21T14:14:00.247Z,13.89
2019-05-21T14:16:34.731Z,13.82
2019-05-21T14:19:06.433Z,13.74
2019-05-21T14:21:38.638Z,13.62
2019-05-21T14:24:10.918Z,13.56
2019-05-21T14:26:43.158Z,13.55
2019-05-21T14:29:15.502Z,13.57
2019-05-21T14:31:47.783Z,13.54
2019-05-21T14:34:20.104Z,13.54
2019-05-21T14:36:52.330Z,13.49
2019-05-21T14:39:24.648Z,13.44
2019-05-21T14:41:56.854Z,13.38
2019-05-21T14:44:29.540Z,13.39
2019-05-21T14:47:01.786Z,13.39
2019-05-21T14:49:34.116Z,13.36
2019-05-21T14:52:08.511Z,13.43
2019-05-21T14:54:40.821Z,13.53
2019-05-21T14:57:13.046Z,13.54
2019-05-21T14:59:45.441Z,13.45
2019-05-21T15:02:17.800Z,13.48
2019-05-21T15:04:50.318Z,13.49
2019-05-21T15:07:22.564Z,13.57
2019-05-21T15:09:54.866Z,13.65
2019-05-21T15:12:27.180Z,13.67
2019-05-21T15:14:59.442Z,13.79
2019-05-21T15:17:31.652Z,13.80
2019-05-21T15:20:03.966Z,13.88
2019-05-21T15:22:36.365Z,13.91
2019-05-21T15:25:08.631Z,13.78
2019-05-21T15:27:40.892Z,13.69
2019-05-21T15:30:13.524Z,13.62
2019-05-21T15:32:45.704Z,13.63
2019-05-21T15:35:17.958Z,13.71
2019-05-21T15:37:50.183Z,13.69
2019-05-21T15:40:22.409Z,13.63
2019-05-21T15:42:54.827Z,13.47
2019-05-21T15:45:27.070Z,13.52
2019-05-21T15:47:59.368Z,13.54
2019-05-21T15:50:31.670Z,13.59
2019-05-21T15:53:03.870Z,13.69
2019-05-21T15:55:36.181Z,13.62
2019-05-21T15:58:08.443Z,13.65
2019-05-21T16:00:40.691Z,13.68
2019-05-21T16:03:12.911Z,13.62
2019-05-21T16:05:45.178Z,13.49
2019-05-21T16:08:17.491Z,13.42
2019-05-21T16:10:49.754Z,13.42
2019-05-21T16:13:21.984Z,13.44
2019-05-21T16:15:54.355Z,13.46
2019-05-21T16:18:26.643Z,13.53
2019-05-21T16:20:58.939Z,13.51
2019-05-21T16:23:31.404Z,13.44
2019-05-21T16:26:04.071Z,13.42
2019-05-21T16:28:36.313Z,13.39
2019-05-21T16:31:08.574Z,13.43
2019-05-21T16:33:40.906Z,13.33
2019-05-21T16:36:13.147Z,13.25
2019-05-21T16:38:45.474Z,13.26
2019-05-21T16:41:17.711Z,13.19
2019-05-21T16:43:49.963Z,13.22
2019-05-21T16:46:22.200Z,13.25
2019-05-21T16:48:54.525Z,13.29
2019-05-21T16:51:26.759Z,13.31
2019-05-21T16:53:58.976Z,13.32
2019-05-21T16:56:31.254Z,13.39
2019-05-21T16:59:09.496Z,13.35
2019-05-21T17:01:46.560Z,13.34
2019-05-21T17:04:18.852Z,13.41
2019-05-21T17:06:51.086Z,13.49
2019-05-21T17:09:23.352Z,13.47
2019-05-21T17:12:00.118Z,13.47
2019-05-21T17:14:29.626Z,13.46
2019-05-21T17:17:01.847Z,13.40
2019-05-21T17:19:34.058Z,13.30
2019-05-21T17:22:06.336Z,13.11
2019-05-21T17:24:38.565Z,12.98
2019-05-21T17:27:10.794Z,12.94
2019-05-21T17:29:43.344Z,12.91
2019-05-21T17:32:15.574Z,12.94
2019-05-21T17:34:47.832Z,12.84
2019-05-21T17:37:20.134Z,12.79
2019-05-21T17:39:52.484Z,12.75
2019-05-21T17:42:25.782Z,12.74
2019-05-21T17:44:58.042Z,12.68
2019-05-21T17:47:30.271Z,12.65
2019-05-21T17:50:02.615Z,12.61
2019-05-21T17:52:34.922Z,12.62
2019-05-21T17:55:07.237Z,12.61
2019-05-21T17:57:39.700Z,12.62
2019-05-21T18:00:11.960Z,12.64
2019-05-21T18:02:44.762Z,12.65
2019-05-21T18:05:17.221Z,12.66
2019-05-21T18:07:49.826Z,12.64
2019-05-21T18:10:22.058Z,12.60
2019-05-21T18:13:00.594Z,12.69
2019-05-21T18:15:33.377Z,12.62
2019-05-21T18:18:05.652Z,12.64
2019-05-21T18:20:37.881Z,12.61
2019-05-21T18:23:10.176Z,12.53
2019-05-21T18:25:43.072Z,12.52
2019-05-21T18:28:15.308Z,12.55
2019-05-21T18:30:47.593Z,12.56
2019-05-21T18:33:20.024Z,12.61
2019-05-21T18:35:52.251Z,12.55
2019-05-21T18:38:24.505Z,12.46
2019-05-21T18:40:56.845Z,12.47
2019-05-21T18:43:29.134Z,12.56
2019-05-21T18:46:01.431Z,12.65
2019-05-21T18:48:33.697Z,12.68
2019-05-21T18:51:05.937Z,12.62
2019-05-21T18:53:38.215Z,12.62
2019-05-21T18:56:10.494Z,12.58
2019-05-21T18:58:42.929Z,12.56
2019-05-21T19:01:15.335Z,12.57
2019-05-21T19:03:47.566Z,12.60
2019-05-21T19:06:20.140Z,12.62
2019-05-21T19:08:52.429Z,12.62
2019-05-21T19:11:26.349Z,12.57
2019-05-21T19:13:59.287Z,12.52
2019-05-21T19:16:31.685Z,12.44
2019-05-21T19:19:03.915Z,12.45
2019-05-21T19:21:36.187Z,12.39
2019-05-21T19:24:08.525Z,12.39
2019-05-21T19:26:43.924Z,12.45
2019-05-21T19:29:14.930Z,12.40
2019-05-21T19:31:49.273Z,12.42
2019-05-21T19:34:21.248Z,12.44
2019-05-21T19:36:53.596Z,12.46
2019-05-21T19:39:25.886Z,12.43
2019-05-21T19:41:58.149Z,12.39
2019-05-21T19:44:32.713Z,12.38
2019-05-21T19:47:06.460Z,12.34
2019-05-21T19:49:38.786Z,12.31
2019-05-21T19:52:11.932Z,12.34
2019-05-21T19:54:44.330Z,12.32
2019-05-21T19:57:16.578Z,12.36
2019-05-21T19:59:49.142Z,12.35
2019-05-21T20:02:22.745Z,12.39
2019-05-21T20:04:55.130Z,12.45
2019-05-21T20:07:27.343Z,12.43
2019-05-21T20:09:59.568Z,12.46
2019-05-21T20:12:31.829Z,12.51
2019-05-21T20:15:04.131Z,12.45
2019-05-21T20:17:37.751Z,12.42
2019-05-21T20:20:11.052Z,12.42
2019-05-21T20:22:43.250Z,12.40
2019-05-21T20:25:15.537Z,12.40
2019-05-21T20:27:47.873Z,12.39
2019-05-21T20:30:20.099Z,12.46
2019-05-21T20:32:52.975Z,12.47
2019-05-21T20:35:25.229Z,12.49
2019-05-21T20:37:57.704Z,12.49
2019-05-21T20:40:29.982Z,12.46
2019-05-21T20:43:02.288Z,12.44
2019-05-21T20:45:34.518Z,12.47
2019-05-21T20:48:06.837Z,12.44
2019-05-21T20:50:39.157Z,12.44
2019-05-21T20:53:11.456Z,12.53
2019-05-21T20:55:43.785Z,12.51
2019-05-21T20:58:15.990Z,12.53
2019-05-21T21:00:48.248Z,12.51
2019-05-21T21:03:20.815Z,12.51
2019-05-21T21:05:53.019Z,12.46
2019-05-21T21:08:27.710Z,12.42
2019-05-21T21:10:59.326Z,12.37
2019-05-21T21:13:31.551Z,12.42
2019-05-21T21:16:04.183Z,12.41
2019-05-21T21:18:36.455Z,12.35
2019-05-21T21:21:08.674Z,12.39
2019-05-21T21:23:40.964Z,12.45
2019-05-21T21:26:13.249Z,12.51
2019-05-21T21:28:45.424Z,12.47
2019-05-21T21:31:17.756Z,12.46
2019-05-21T21:33:50.004Z,12.40
2019-05-21T21:36:22.266Z,12.37
2019-05-21T21:38:54.569Z,12.40
2019-05-21T21:41:26.810Z,12.45
2019-05-21T21:43:59.020Z,12.47
2019-05-21T21:46:31.267Z,12.46
2019-05-21T21:49:03.503Z,12.40
2019-05-21T21:51:35.736Z,12.35
2019-05-21T21:54:08.001Z,12.34
2019-05-21T21:56:40.251Z,12.39
2019-05-21T21:59:12.483Z,12.44
2019-05-21T22:01:44.781Z,12.44
2019-05-21T22:04:17.213Z,12.44
2019-05-21T22:06:49.501Z,12.40
2019-05-21T22:09:21.834Z,12.41
2019-05-21T22:11:54.174Z,12.38
2019-05-21T22:14:26.302Z,12.40
2019-05-21T22:16:58.549Z,12.31
2019-05-21T22:19:30.861Z,12.34
2019-05-21T22:22:03.141Z,12.44
2019-05-21T22:24:35.413Z,12.37
2019-05-21T22:27:07.647Z,12.37
2019-05-21T22:29:40.098Z,12.42
2019-05-21T22:32:12.468Z,12.38
2019-05-21T22:34:44.748Z,12.37
2019-05-21T22:37:16.841Z,12.38
2019-05-21T22:39:49.087Z,12.38
2019-05-21T22:42:21.286Z,12.37
2019-05-21T22:45:06.822Z,12.35
2019-05-21T22:47:28.222Z,12.34
2019-05-21T22:50:00.624Z,12.32
2019-05-21T22:52:32.842Z,12.37
2019-05-21T22:55:05.100Z,12.39
2019-05-21T22:57:37.370Z,12.42
2019-05-21T23:00:09.592Z,12.47
2019-05-21T23:02:41.816Z,12.52
2019-05-21T23:05:14.122Z,12.52
2019-05-21T23:07:47.966Z,12.51
2019-05-21T23:10:20.204Z,12.49
2019-05-21T23:12:52.414Z,12.48
2019-05-21T23:15:25.731Z,12.52
2019-05-21T23:18:17.761Z,12.47
2019-05-21T23:20:54.541Z,12.41
2019-05-21T23:23:28.542Z,12.42
2019-05-21T23:26:01.864Z,12.38
2019-05-21T23:28:34.086Z,12.36
2019-05-21T23:31:08.355Z,12.41
2019-05-21T23:33:40.585Z,12.36
2019-05-21T23:36:12.840Z,12.32
2019-05-21T23:38:45.071Z,12.28
2019-05-21T23:41:17.347Z,12.19
2019-05-21T23:43:49.625Z,12.21
2019-05-21T23:46:21.847Z,12.18
2019-05-21T23:48:54.093Z,12.13
2019-05-21T23:51:26.605Z,12.11
2019-05-21T23:53:58.936Z,12.07
2019-05-21T23:56:31.161Z,12.04
2019-05-21T23:59:03.450Z,12.03
